Dasht-e Naz Airport

Airport
ICAO code: 
OINZ
IATA Code: 
SRY
Summary
ICAO Region: 
MID
Territory: 
Location: 
Shah Abad, Mazandaran Province
Serving: 
Sari
Elevation: 
35 ft
Coordinates: 
Aerial View: 
36° 37' 36.66" N, 53° 12' 13.638" E
Metar
Observation
OINZ 261900Z 23004KT 9999 FEW035 BKN090 26/22 Q1003
Station
SARY DASHTE NAZ
Date/Time
2022-06-26 19:00:00
Wind direction
230°
Wind speed
04 kts
Lowest cloud amount
few clouds
Temperature
26°C
Dew point
22°C
Humidity
78%
QNH
1003 hPa
Weather condition
n/a

Airport located 23km northeast of Sari, Iran.

Climatology

Humid sub-tropical climate (Köppen climate classification Cfa).

Runways

Designator Length Width Surface Rops
16/34 2648 45 ASP No/No
Airport map: 
Aerial View: 

SKYbrary Partners:

Safety knowledge contributed by: